sensor_id;sensor_type;location;lat;lon;timestamp;P1;durP1;ratioP1;P2;durP2;ratioP2
15968;SDS011;8085;53.472;9.794;2023-02-11T00:02:18;52.20;;;26.60;;
15968;SDS011;8085;53.472;9.794;2023-02-11T00:04:46;53.23;;;27.47;;
15968;SDS011;8085;53.472;9.794;2023-02-11T00:07:13;53.13;;;27.77;;
15968;SDS011;8085;53.472;9.794;2023-02-11T00:09:40;52.63;;;26.67;;
15968;SDS011;8085;53.472;9.794;2023-02-11T00:12:07;46.47;;;26.50;;
15968;SDS011;8085;53.472;9.794;2023-02-11T00:14:33;56.27;;;28.53;;
15968;SDS011;8085;53.472;9.794;2023-02-11T00:17:00;47.53;;;27.70;;
15968;SDS011;8085;53.472;9.794;2023-02-11T00:19:27;56.83;;;27.60;;
15968;SDS011;8085;53.472;9.794;2023-02-11T00:21:55;50.97;;;27.87;;
15968;SDS011;8085;53.472;9.794;2023-02-11T00:24:22;52.73;;;28.97;;
15968;SDS011;8085;53.472;9.794;2023-02-11T00:26:49;51.27;;;27.10;;
15968;SDS011;8085;53.472;9.794;2023-02-11T00:29:16;52.03;;;27.63;;
15968;SDS011;8085;53.472;9.794;2023-02-11T00:31:42;53.27;;;27.70;;
15968;SDS011;8085;53.472;9.794;2023-02-11T00:34:09;60.00;;;29.77;;
15968;SDS011;8085;53.472;9.794;2023-02-11T00:36:36;51.27;;;27.87;;
15968;SDS011;8085;53.472;9.794;2023-02-11T00:39:04;56.17;;;29.13;;
15968;SDS011;8085;53.472;9.794;2023-02-11T00:41:32;55.53;;;27.97;;
15968;SDS011;8085;53.472;9.794;2023-02-11T00:43:59;55.77;;;29.77;;
15968;SDS011;8085;53.472;9.794;2023-02-11T00:46:26;60.90;;;29.63;;
15968;SDS011;8085;53.472;9.794;2023-02-11T00:48:53;56.60;;;29.80;;
15968;SDS011;8085;53.472;9.794;2023-02-11T00:51:21;57.60;;;31.80;;
15968;SDS011;8085;53.472;9.794;2023-02-11T00:53:48;57.97;;;31.23;;
15968;SDS011;8085;53.472;9.794;2023-02-11T00:56:17;57.30;;;30.37;;
15968;SDS011;8085;53.472;9.794;2023-02-11T00:58:44;57.13;;;31.67;;
15968;SDS011;8085;53.472;9.794;2023-02-11T01:01:10;62.57;;;29.37;;
15968;SDS011;8085;53.472;9.794;2023-02-11T01:03:38;54.90;;;30.13;;
15968;SDS011;8085;53.472;9.794;2023-02-11T01:06:05;67.53;;;31.53;;
15968;SDS011;8085;53.472;9.794;2023-02-11T01:08:33;52.27;;;30.23;;
15968;SDS011;8085;53.472;9.794;2023-02-11T01:11:02;57.90;;;30.57;;
15968;SDS011;8085;53.472;9.794;2023-02-11T01:13:33;56.33;;;30.43;;
15968;SDS011;8085;53.472;9.794;2023-02-11T01:16:01;61.43;;;30.63;;
15968;SDS011;8085;53.472;9.794;2023-02-11T01:18:29;60.10;;;30.10;;
15968;SDS011;8085;53.472;9.794;2023-02-11T01:20:56;59.77;;;30.80;;
15968;SDS011;8085;53.472;9.794;2023-02-11T01:23:22;61.47;;;32.03;;
15968;SDS011;8085;53.472;9.794;2023-02-11T01:25:49;59.17;;;31.73;;
15968;SDS011;8085;53.472;9.794;2023-02-11T01:28:17;59.93;;;32.70;;
15968;SDS011;8085;53.472;9.794;2023-02-11T01:30:46;70.10;;;33.27;;
15968;SDS011;8085;53.472;9.794;2023-02-11T01:33:13;54.77;;;30.60;;
15968;SDS011;8085;53.472;9.794;2023-02-11T01:35:40;60.30;;;30.83;;
15968;SDS011;8085;53.472;9.794;2023-02-11T01:38:07;59.17;;;31.47;;
15968;SDS011;8085;53.472;9.794;2023-02-11T01:40:44;65.47;;;30.63;;
15968;SDS011;8085;53.472;9.794;2023-02-11T01:43:12;63.87;;;32.30;;
15968;SDS011;8085;53.472;9.794;2023-02-11T01:48:42;56.50;;;30.97;;
15968;SDS011;8085;53.472;9.794;2023-02-11T01:51:13;60.80;;;31.53;;
15968;SDS011;8085;53.472;9.794;2023-02-11T01:53:43;59.37;;;30.60;;
15968;SDS011;8085;53.472;9.794;2023-02-11T01:56:30;66.17;;;31.10;;
15968;SDS011;8085;53.472;9.794;2023-02-11T01:59:30;61.73;;;31.37;;
15968;SDS011;8085;53.472;9.794;2023-02-11T02:02:05;59.97;;;30.77;;
15968;SDS011;8085;53.472;9.794;2023-02-11T02:04:37;54.90;;;29.20;;
15968;SDS011;8085;53.472;9.794;2023-02-11T02:07:10;48.97;;;29.57;;
15968;SDS011;8085;53.472;9.794;2023-02-11T02:09:43;58.80;;;28.97;;
15968;SDS011;8085;53.472;9.794;2023-02-11T02:12:14;54.90;;;28.17;;
15968;SDS011;8085;53.472;9.794;2023-02-11T02:14:41;54.73;;;28.53;;
15968;SDS011;8085;53.472;9.794;2023-02-11T02:17:10;53.77;;;27.80;;
15968;SDS011;8085;53.472;9.794;2023-02-11T02:20:02;54.57;;;26.53;;
15968;SDS011;8085;53.472;9.794;2023-02-11T02:22:54;52.33;;;27.63;;
15968;SDS011;8085;53.472;9.794;2023-02-11T02:28:49;49.50;;;26.20;;
15968;SDS011;8085;53.472;9.794;2023-02-11T02:31:35;50.40;;;26.33;;
15968;SDS011;8085;53.472;9.794;2023-02-11T02:34:20;50.37;;;24.83;;
15968;SDS011;8085;53.472;9.794;2023-02-11T02:36:54;50.37;;;26.67;;
15968;SDS011;8085;53.472;9.794;2023-02-11T02:39:30;54.20;;;26.13;;
15968;SDS011;8085;53.472;9.794;2023-02-11T02:42:00;56.23;;;27.43;;
15968;SDS011;8085;53.472;9.794;2023-02-11T02:44:28;55.00;;;25.70;;
15968;SDS011;8085;53.472;9.794;2023-02-11T02:46:55;50.77;;;25.60;;
15968;SDS011;8085;53.472;9.794;2023-02-11T02:49:24;52.97;;;26.93;;
15968;SDS011;8085;53.472;9.794;2023-02-11T02:51:55;51.90;;;25.97;;
15968;SDS011;8085;53.472;9.794;2023-02-11T02:57:28;47.83;;;25.13;;
15968;SDS011;8085;53.472;9.794;2023-02-11T03:00:03;57.17;;;26.23;;
15968;SDS011;8085;53.472;9.794;2023-02-11T03:02:36;49.70;;;24.67;;
15968;SDS011;8085;53.472;9.794;2023-02-11T03:05:11;52.13;;;26.30;;
15968;SDS011;8085;53.472;9.794;2023-02-11T03:07:44;50.90;;;26.33;;
15968;SDS011;8085;53.472;9.794;2023-02-11T03:10:18;44.87;;;24.60;;
15968;SDS011;8085;53.472;9.794;2023-02-11T03:12:50;50.67;;;24.47;;
15968;SDS011;8085;53.472;9.794;2023-02-11T03:15:18;47.20;;;23.77;;
15968;SDS011;8085;53.472;9.794;2023-02-11T03:17:48;47.60;;;23.40;;
15968;SDS011;8085;53.472;9.794;2023-02-11T03:20:19;42.43;;;23.10;;
15968;SDS011;8085;53.472;9.794;2023-02-11T03:22:49;44.73;;;21.67;;
15968;SDS011;8085;53.472;9.794;2023-02-11T03:25:19;46.53;;;21.53;;
15968;SDS011;8085;53.472;9.794;2023-02-11T03:27:52;46.40;;;21.03;;
15968;SDS011;8085;53.472;9.794;2023-02-11T03:30:24;46.43;;;20.17;;
15968;SDS011;8085;53.472;9.794;2023-02-11T03:32:56;39.50;;;19.60;;
15968;SDS011;8085;53.472;9.794;2023-02-11T03:35:28;37.90;;;18.63;;
15968;SDS011;8085;53.472;9.794;2023-02-11T03:37:59;42.23;;;18.07;;
15968;SDS011;8085;53.472;9.794;2023-02-11T03:40:31;40.23;;;19.77;;
15968;SDS011;8085;53.472;9.794;2023-02-11T03:43:04;35.87;;;17.53;;
15968;SDS011;8085;53.472;9.794;2023-02-11T03:45:36;36.80;;;18.13;;
15968;SDS011;8085;53.472;9.794;2023-02-11T03:48:05;34.77;;;18.10;;
15968;SDS011;8085;53.472;9.794;2023-02-11T03:50:39;34.20;;;17.27;;
15968;SDS011;8085;53.472;9.794;2023-02-11T03:53:07;36.60;;;17.97;;
15968;SDS011;8085;53.472;9.794;2023-02-11T03:55:36;40.53;;;18.10;;
15968;SDS011;8085;53.472;9.794;2023-02-11T03:58:05;38.53;;;17.33;;
15968;SDS011;8085;53.472;9.794;2023-02-11T04:00:33;38.27;;;17.00;;
15968;SDS011;8085;53.472;9.794;2023-02-11T04:03:01;34.67;;;16.70;;
15968;SDS011;8085;53.472;9.794;2023-02-11T04:05:28;35.80;;;16.47;;
15968;SDS011;8085;53.472;9.794;2023-02-11T04:07:56;34.60;;;16.23;;
15968;SDS011;8085;53.472;9.794;2023-02-11T04:10:23;34.30;;;17.40;;
15968;SDS011;8085;53.472;9.794;2023-02-11T04:12:50;32.70;;;15.50;;
15968;SDS011;8085;53.472;9.794;2023-02-11T04:15:17;34.93;;;16.40;;
15968;SDS011;8085;53.472;9.794;2023-02-11T04:17:44;36.90;;;16.63;;
15968;SDS011;8085;53.472;9.794;2023-02-11T04:20:11;36.93;;;15.37;;
15968;SDS011;8085;53.472;9.794;2023-02-11T04:22:38;32.27;;;16.40;;
15968;SDS011;8085;53.472;9.794;2023-02-11T04:25:07;32.97;;;14.97;;
15968;SDS011;8085;53.472;9.794;2023-02-11T04:27:35;34.67;;;15.57;;
15968;SDS011;8085;53.472;9.794;2023-02-11T04:30:02;31.47;;;15.77;;
15968;SDS011;8085;53.472;9.794;2023-02-11T04:32:29;37.03;;;15.90;;
15968;SDS011;8085;53.472;9.794;2023-02-11T04:34:56;33.97;;;15.97;;
15968;SDS011;8085;53.472;9.794;2023-02-11T04:37:23;30.23;;;15.73;;
15968;SDS011;8085;53.472;9.794;2023-02-11T04:39:50;27.97;;;15.10;;
15968;SDS011;8085;53.472;9.794;2023-02-11T04:42:18;33.87;;;16.23;;
15968;SDS011;8085;53.472;9.794;2023-02-11T04:44:44;39.80;;;15.70;;
15968;SDS011;8085;53.472;9.794;2023-02-11T04:47:11;28.47;;;14.20;;
15968;SDS011;8085;53.472;9.794;2023-02-11T04:49:39;33.63;;;16.37;;
15968;SDS011;8085;53.472;9.794;2023-02-11T04:52:06;31.07;;;15.00;;
15968;SDS011;8085;53.472;9.794;2023-02-11T04:54:34;32.43;;;15.13;;
15968;SDS011;8085;53.472;9.794;2023-02-11T04:57:01;32.07;;;15.07;;
15968;SDS011;8085;53.472;9.794;2023-02-11T04:59:29;32.00;;;14.77;;
15968;SDS011;8085;53.472;9.794;2023-02-11T05:01:56;34.87;;;15.40;;
15968;SDS011;8085;53.472;9.794;2023-02-11T05:04:22;31.50;;;15.00;;
15968;SDS011;8085;53.472;9.794;2023-02-11T05:06:49;31.87;;;15.07;;
15968;SDS011;8085;53.472;9.794;2023-02-11T05:09:16;36.83;;;15.70;;
15968;SDS011;8085;53.472;9.794;2023-02-11T05:11:43;32.30;;;15.17;;
15968;SDS011;8085;53.472;9.794;2023-02-11T05:14:10;24.23;;;14.53;;
15968;SDS011;8085;53.472;9.794;2023-02-11T05:16:38;28.77;;;14.33;;
15968;SDS011;8085;53.472;9.794;2023-02-11T05:19:05;30.57;;;14.60;;
15968;SDS011;8085;53.472;9.794;2023-02-11T05:21:32;27.37;;;16.03;;
15968;SDS011;8085;53.472;9.794;2023-02-11T05:23:59;34.73;;;15.70;;
15968;SDS011;8085;53.472;9.794;2023-02-11T05:26:25;27.93;;;15.33;;
15968;SDS011;8085;53.472;9.794;2023-02-11T05:28:52;33.70;;;15.37;;
15968;SDS011;8085;53.472;9.794;2023-02-11T05:31:19;37.73;;;14.60;;
15968;SDS011;8085;53.472;9.794;2023-02-11T05:33:47;31.60;;;15.63;;
15968;SDS011;8085;53.472;9.794;2023-02-11T05:36:14;33.37;;;16.17;;
15968;SDS011;8085;53.472;9.794;2023-02-11T05:38:41;36.03;;;16.43;;
15968;SDS011;8085;53.472;9.794;2023-02-11T05:41:09;30.23;;;15.13;;
15968;SDS011;8085;53.472;9.794;2023-02-11T05:43:36;34.63;;;15.83;;
15968;SDS011;8085;53.472;9.794;2023-02-11T05:46:03;30.67;;;15.70;;
15968;SDS011;8085;53.472;9.794;2023-02-11T05:48:31;34.43;;;15.80;;
15968;SDS011;8085;53.472;9.794;2023-02-11T05:50:59;30.43;;;15.50;;
15968;SDS011;8085;53.472;9.794;2023-02-11T05:53:26;33.27;;;16.07;;
15968;SDS011;8085;53.472;9.794;2023-02-11T05:55:53;30.33;;;15.40;;
15968;SDS011;8085;53.472;9.794;2023-02-11T05:58:20;35.37;;;16.73;;
15968;SDS011;8085;53.472;9.794;2023-02-11T06:00:46;36.97;;;17.47;;
15968;SDS011;8085;53.472;9.794;2023-02-11T06:03:13;32.67;;;17.03;;
15968;SDS011;8085;53.472;9.794;2023-02-11T06:05:41;39.43;;;16.27;;
15968;SDS011;8085;53.472;9.794;2023-02-11T06:08:09;33.33;;;16.90;;
15968;SDS011;8085;53.472;9.794;2023-02-11T06:10:36;33.30;;;16.93;;
15968;SDS011;8085;53.472;9.794;2023-02-11T06:13:03;32.53;;;16.60;;
15968;SDS011;8085;53.472;9.794;2023-02-11T06:15:30;29.30;;;15.33;;
15968;SDS011;8085;53.472;9.794;2023-02-11T06:17:56;35.63;;;15.83;;
15968;SDS011;8085;53.472;9.794;2023-02-11T06:20:23;33.23;;;16.13;;
15968;SDS011;8085;53.472;9.794;2023-02-11T06:22:50;29.90;;;16.13;;
15968;SDS011;8085;53.472;9.794;2023-02-11T06:25:18;34.43;;;16.40;;
15968;SDS011;8085;53.472;9.794;2023-02-11T06:27:45;37.93;;;16.17;;
15968;SDS011;8085;53.472;9.794;2023-02-11T06:30:12;34.20;;;16.70;;
15968;SDS011;8085;53.472;9.794;2023-02-11T06:32:39;32.83;;;16.73;;
15968;SDS011;8085;53.472;9.794;2023-02-11T06:35:06;32.67;;;15.33;;
15968;SDS011;8085;53.472;9.794;2023-02-11T06:37:34;35.03;;;16.10;;
15968;SDS011;8085;53.472;9.794;2023-02-11T06:40:00;29.60;;;15.93;;
15968;SDS011;8085;53.472;9.794;2023-02-11T06:42:28;29.43;;;16.20;;
15968;SDS011;8085;53.472;9.794;2023-02-11T06:44:55;29.27;;;16.07;;
15968;SDS011;8085;53.472;9.794;2023-02-11T06:47:22;31.43;;;15.63;;
15968;SDS011;8085;53.472;9.794;2023-02-11T06:49:49;31.43;;;16.77;;
15968;SDS011;8085;53.472;9.794;2023-02-11T06:52:15;32.13;;;16.10;;
15968;SDS011;8085;53.472;9.794;2023-02-11T06:54:42;27.27;;;14.90;;
15968;SDS011;8085;53.472;9.794;2023-02-11T06:57:09;35.07;;;16.20;;
15968;SDS011;8085;53.472;9.794;2023-02-11T06:59:37;27.43;;;15.87;;
15968;SDS011;8085;53.472;9.794;2023-02-11T07:02:04;37.70;;;16.13;;
15968;SDS011;8085;53.472;9.794;2023-02-11T07:04:31;29.47;;;15.60;;
15968;SDS011;8085;53.472;9.794;2023-02-11T07:06:57;34.40;;;15.70;;
15968;SDS011;8085;53.472;9.794;2023-02-11T07:09:24;36.77;;;16.60;;
15968;SDS011;8085;53.472;9.794;2023-02-11T07:11:51;29.47;;;15.80;;
15968;SDS011;8085;53.472;9.794;2023-02-11T07:14:18;34.50;;;17.30;;
15968;SDS011;8085;53.472;9.794;2023-02-11T07:16:46;32.27;;;17.43;;
15968;SDS011;8085;53.472;9.794;2023-02-11T07:19:13;38.17;;;17.73;;
15968;SDS011;8085;53.472;9.794;2023-02-11T07:21:40;33.23;;;17.43;;
15968;SDS011;8085;53.472;9.794;2023-02-11T07:24:07;35.33;;;17.23;;
15968;SDS011;8085;53.472;9.794;2023-02-11T07:26:34;34.10;;;17.23;;
15968;SDS011;8085;53.472;9.794;2023-02-11T07:29:01;28.33;;;15.70;;
15968;SDS011;8085;53.472;9.794;2023-02-11T07:31:29;34.90;;;17.40;;
15968;SDS011;8085;53.472;9.794;2023-02-11T07:33:58;35.97;;;17.13;;
15968;SDS011;8085;53.472;9.794;2023-02-11T07:36:26;34.73;;;16.10;;
15968;SDS011;8085;53.472;9.794;2023-02-11T07:38:55;32.87;;;17.40;;
15968;SDS011;8085;53.472;9.794;2023-02-11T07:41:23;34.17;;;17.83;;
15968;SDS011;8085;53.472;9.794;2023-02-11T07:43:50;34.13;;;18.63;;
15968;SDS011;8085;53.472;9.794;2023-02-11T07:46:18;34.47;;;18.53;;
15968;SDS011;8085;53.472;9.794;2023-02-11T07:48:46;33.90;;;17.50;;
15968;SDS011;8085;53.472;9.794;2023-02-11T07:51:15;36.70;;;17.73;;
15968;SDS011;8085;53.472;9.794;2023-02-11T07:53:44;30.97;;;17.63;;
15968;SDS011;8085;53.472;9.794;2023-02-11T07:56:13;36.47;;;18.63;;
15968;SDS011;8085;53.472;9.794;2023-02-11T07:58:40;33.73;;;18.97;;
15968;SDS011;8085;53.472;9.794;2023-02-11T08:01:08;37.47;;;18.50;;
15968;SDS011;8085;53.472;9.794;2023-02-11T08:03:37;30.57;;;18.43;;
15968;SDS011;8085;53.472;9.794;2023-02-11T08:06:07;35.43;;;17.73;;
15968;SDS011;8085;53.472;9.794;2023-02-11T08:08:36;35.83;;;16.87;;
15968;SDS011;8085;53.472;9.794;2023-02-11T08:11:06;37.73;;;19.07;;
15968;SDS011;8085;53.472;9.794;2023-02-11T08:13:34;34.77;;;18.80;;
15968;SDS011;8085;53.472;9.794;2023-02-11T08:16:01;40.53;;;18.30;;
15968;SDS011;8085;53.472;9.794;2023-02-11T08:18:29;35.23;;;18.53;;
15968;SDS011;8085;53.472;9.794;2023-02-11T08:20:56;32.47;;;17.13;;
15968;SDS011;8085;53.472;9.794;2023-02-11T08:23:28;32.20;;;16.77;;
15968;SDS011;8085;53.472;9.794;2023-02-11T08:25:59;34.73;;;17.60;;
15968;SDS011;8085;53.472;9.794;2023-02-11T08:28:26;30.57;;;17.70;;
15968;SDS011;8085;53.472;9.794;2023-02-11T08:30:53;30.70;;;17.07;;
15968;SDS011;8085;53.472;9.794;2023-02-11T08:33:20;35.10;;;17.70;;
15968;SDS011;8085;53.472;9.794;2023-02-11T08:35:47;34.13;;;17.97;;
15968;SDS011;8085;53.472;9.794;2023-02-11T08:38:13;31.57;;;17.93;;
15968;SDS011;8085;53.472;9.794;2023-02-11T08:40:40;31.50;;;17.63;;
15968;SDS011;8085;53.472;9.794;2023-02-11T08:43:08;33.70;;;18.17;;
15968;SDS011;8085;53.472;9.794;2023-02-11T08:45:35;32.87;;;17.33;;
15968;SDS011;8085;53.472;9.794;2023-02-11T08:48:02;29.97;;;16.60;;
15968;SDS011;8085;53.472;9.794;2023-02-11T08:50:29;35.20;;;17.27;;
15968;SDS011;8085;53.472;9.794;2023-02-11T08:52:56;29.93;;;17.00;;
15968;SDS011;8085;53.472;9.794;2023-02-11T08:55:23;32.80;;;17.33;;
15968;SDS011;8085;53.472;9.794;2023-02-11T08:57:50;33.27;;;17.50;;
15968;SDS011;8085;53.472;9.794;2023-02-11T09:00:18;31.63;;;16.57;;
15968;SDS011;8085;53.472;9.794;2023-02-11T09:02:45;34.87;;;16.83;;
15968;SDS011;8085;53.472;9.794;2023-02-11T09:05:12;24.20;;;14.90;;
15968;SDS011;8085;53.472;9.794;2023-02-11T09:07:39;30.30;;;16.67;;
15968;SDS011;8085;53.472;9.794;2023-02-11T09:10:06;31.63;;;15.83;;
15968;SDS011;8085;53.472;9.794;2023-02-11T09:12:33;29.33;;;16.13;;
15968;SDS011;8085;53.472;9.794;2023-02-11T09:15:00;25.47;;;14.60;;
15968;SDS011;8085;53.472;9.794;2023-02-11T09:17:28;25.97;;;15.07;;
15968;SDS011;8085;53.472;9.794;2023-02-11T09:19:55;29.77;;;15.17;;
15968;SDS011;8085;53.472;9.794;2023-02-11T09:22:22;25.60;;;15.73;;
15968;SDS011;8085;53.472;9.794;2023-02-11T09:24:49;27.23;;;14.47;;
15968;SDS011;8085;53.472;9.794;2023-02-11T09:27:15;26.47;;;14.70;;
15968;SDS011;8085;53.472;9.794;2023-02-11T09:29:42;28.23;;;14.77;;
15968;SDS011;8085;53.472;9.794;2023-02-11T09:32:09;30.93;;;16.37;;
15968;SDS011;8085;53.472;9.794;2023-02-11T09:34:37;32.93;;;16.47;;
15968;SDS011;8085;53.472;9.794;2023-02-11T09:37:04;33.37;;;17.50;;
15968;SDS011;8085;53.472;9.794;2023-02-11T09:39:31;29.07;;;16.43;;
15968;SDS011;8085;53.472;9.794;2023-02-11T09:42:01;32.63;;;16.40;;
15968;SDS011;8085;53.472;9.794;2023-02-11T09:44:38;33.33;;;17.17;;
15968;SDS011;8085;53.472;9.794;2023-02-11T09:47:14;35.37;;;16.60;;
15968;SDS011;8085;53.472;9.794;2023-02-11T09:49:52;27.30;;;15.17;;
15968;SDS011;8085;53.472;9.794;2023-02-11T09:52:23;28.73;;;15.77;;
15968;SDS011;8085;53.472;9.794;2023-02-11T09:54:56;28.73;;;16.40;;
15968;SDS011;8085;53.472;9.794;2023-02-11T09:57:25;30.53;;;15.97;;
15968;SDS011;8085;53.472;9.794;2023-02-11T09:59:57;32.47;;;15.93;;
15968;SDS011;8085;53.472;9.794;2023-02-11T10:02:26;29.97;;;15.93;;
15968;SDS011;8085;53.472;9.794;2023-02-11T10:05:18;26.63;;;14.80;;
15968;SDS011;8085;53.472;9.794;2023-02-11T10:07:55;29.70;;;15.73;;
15968;SDS011;8085;53.472;9.794;2023-02-11T10:10:32;34.57;;;16.10;;
15968;SDS011;8085;53.472;9.794;2023-02-11T10:13:16;32.63;;;17.10;;
15968;SDS011;8085;53.472;9.794;2023-02-11T10:15:55;26.10;;;15.03;;
15968;SDS011;8085;53.472;9.794;2023-02-11T10:18:38;31.10;;;15.60;;
15968;SDS011;8085;53.472;9.794;2023-02-11T10:21:16;35.03;;;15.50;;
15968;SDS011;8085;53.472;9.794;2023-02-11T10:23:50;36.17;;;16.13;;
15968;SDS011;8085;53.472;9.794;2023-02-11T10:26:19;29.13;;;14.17;;
15968;SDS011;8085;53.472;9.794;2023-02-11T10:28:48;30.27;;;15.30;;
15968;SDS011;8085;53.472;9.794;2023-02-11T10:31:19;26.50;;;13.90;;
15968;SDS011;8085;53.472;9.794;2023-02-11T10:33:49;33.37;;;14.10;;
15968;SDS011;8085;53.472;9.794;2023-02-11T10:36:27;25.97;;;12.77;;
15968;SDS011;8085;53.472;9.794;2023-02-11T10:38:55;36.30;;;13.57;;
15968;SDS011;8085;53.472;9.794;2023-02-11T10:41:25;30.60;;;11.57;;
15968;SDS011;8085;53.472;9.794;2023-02-11T10:43:57;32.10;;;12.90;;
15968;SDS011;8085;53.472;9.794;2023-02-11T10:46:28;24.33;;;11.43;;
15968;SDS011;8085;53.472;9.794;2023-02-11T10:48:57;29.27;;;11.80;;
15968;SDS011;8085;53.472;9.794;2023-02-11T10:51:24;27.43;;;12.83;;
15968;SDS011;8085;53.472;9.794;2023-02-11T10:54:09;28.20;;;12.57;;
15968;SDS011;8085;53.472;9.794;2023-02-11T10:56:39;32.97;;;12.30;;
15968;SDS011;8085;53.472;9.794;2023-02-11T10:59:13;28.00;;;13.10;;
15968;SDS011;8085;53.472;9.794;2023-02-11T11:01:47;29.93;;;13.40;;
15968;SDS011;8085;53.472;9.794;2023-02-11T11:04:31;34.50;;;12.83;;
15968;SDS011;8085;53.472;9.794;2023-02-11T11:07:11;33.87;;;13.23;;
15968;SDS011;8085;53.472;9.794;2023-02-11T11:09:43;28.17;;;12.80;;
15968;SDS011;8085;53.472;9.794;2023-02-11T11:12:25;32.70;;;13.80;;
15968;SDS011;8085;53.472;9.794;2023-02-11T11:14:59;34.63;;;13.90;;
15968;SDS011;8085;53.472;9.794;2023-02-11T11:17:28;29.37;;;13.90;;
15968;SDS011;8085;53.472;9.794;2023-02-11T11:23:08;27.27;;;13.00;;
15968;SDS011;8085;53.472;9.794;2023-02-11T11:25:41;27.73;;;12.57;;
15968;SDS011;8085;53.472;9.794;2023-02-11T11:28:17;29.87;;;11.87;;
15968;SDS011;8085;53.472;9.794;2023-02-11T11:30:47;30.97;;;12.63;;
15968;SDS011;8085;53.472;9.794;2023-02-11T11:33:18;29.27;;;11.63;;
15968;SDS011;8085;53.472;9.794;2023-02-11T11:36:00;29.53;;;11.27;;
15968;SDS011;8085;53.472;9.794;2023-02-11T11:38:31;26.73;;;10.40;;
15968;SDS011;8085;53.472;9.794;2023-02-11T11:41:16;28.20;;;10.73;;
15968;SDS011;8085;53.472;9.794;2023-02-11T11:43:56;32.73;;;10.73;;
15968;SDS011;8085;53.472;9.794;2023-02-11T11:46:41;19.87;;;9.60;;
15968;SDS011;8085;53.472;9.794;2023-02-11T11:49:12;17.43;;;9.13;;
15968;SDS011;8085;53.472;9.794;2023-02-11T11:51:50;23.37;;;9.57;;
15968;SDS011;8085;53.472;9.794;2023-02-11T11:54:24;27.87;;;10.03;;
15968;SDS011;8085;53.472;9.794;2023-02-11T11:56:54;27.90;;;9.43;;
15968;SDS011;8085;53.472;9.794;2023-02-11T11:59:25;26.43;;;10.40;;
15968;SDS011;8085;53.472;9.794;2023-02-11T12:01:58;30.73;;;9.87;;
15968;SDS011;8085;53.472;9.794;2023-02-11T12:04:49;20.47;;;8.47;;
15968;SDS011;8085;53.472;9.794;2023-02-11T12:07:31;26.43;;;8.43;;
15968;SDS011;8085;53.472;9.794;2023-02-11T12:10:20;23.63;;;8.77;;
15968;SDS011;8085;53.472;9.794;2023-02-11T12:13:25;22.00;;;8.00;;
15968;SDS011;8085;53.472;9.794;2023-02-11T12:16:10;15.73;;;7.63;;
15968;SDS011;8085;53.472;9.794;2023-02-11T12:21:40;22.03;;;9.23;;
15968;SDS011;8085;53.472;9.794;2023-02-11T12:24:20;16.27;;;7.90;;
15968;SDS011;8085;53.472;9.794;2023-02-11T12:26:58;16.80;;;8.57;;
15968;SDS011;8085;53.472;9.794;2023-02-11T12:29:32;18.90;;;8.60;;
15968;SDS011;8085;53.472;9.794;2023-02-11T12:32:13;16.97;;;7.33;;
15968;SDS011;8085;53.472;9.794;2023-02-11T12:37:57;13.60;;;7.23;;
15968;SDS011;8085;53.472;9.794;2023-02-11T12:40:44;16.27;;;7.20;;
15968;SDS011;8085;53.472;9.794;2023-02-11T12:43:19;24.00;;;7.37;;
15968;SDS011;8085;53.472;9.794;2023-02-11T12:45:51;20.47;;;7.43;;
15968;SDS011;8085;53.472;9.794;2023-02-11T12:48:32;18.80;;;8.03;;
15968;SDS011;8085;53.472;9.794;2023-02-11T12:51:12;15.90;;;7.13;;
15968;SDS011;8085;53.472;9.794;2023-02-11T12:53:52;12.50;;;6.37;;
15968;SDS011;8085;53.472;9.794;2023-02-11T12:56:32;17.40;;;7.00;;
15968;SDS011;8085;53.472;9.794;2023-02-11T12:59:05;18.57;;;6.70;;
15968;SDS011;8085;53.472;9.794;2023-02-11T13:01:39;17.33;;;6.37;;
15968;SDS011;8085;53.472;9.794;2023-02-11T13:04:10;15.97;;;6.43;;
15968;SDS011;8085;53.472;9.794;2023-02-11T13:06:43;19.90;;;6.43;;
15968;SDS011;8085;53.472;9.794;2023-02-11T13:09:15;13.40;;;5.43;;
15968;SDS011;8085;53.472;9.794;2023-02-11T13:11:45;12.00;;;5.27;;
15968;SDS011;8085;53.472;9.794;2023-02-11T13:14:21;10.43;;;4.67;;
15968;SDS011;8085;53.472;9.794;2023-02-11T13:16:52;13.13;;;5.53;;
15968;SDS011;8085;53.472;9.794;2023-02-11T13:19:22;11.30;;;4.63;;
15968;SDS011;8085;53.472;9.794;2023-02-11T13:21:59;10.57;;;5.17;;
15968;SDS011;8085;53.472;9.794;2023-02-11T13:24:36;16.20;;;4.80;;
15968;SDS011;8085;53.472;9.794;2023-02-11T13:27:11;10.30;;;4.13;;
15968;SDS011;8085;53.472;9.794;2023-02-11T13:33:05;10.63;;;3.70;;
15968;SDS011;8085;53.472;9.794;2023-02-11T13:35:47;8.90;;;3.50;;
15968;SDS011;8085;53.472;9.794;2023-02-11T13:38:35;16.37;;;4.30;;
15968;SDS011;8085;53.472;9.794;2023-02-11T13:41:04;14.90;;;4.23;;
15968;SDS011;8085;53.472;9.794;2023-02-11T13:43:41;13.23;;;3.50;;
15968;SDS011;8085;53.472;9.794;2023-02-11T13:46:09;13.23;;;4.00;;
15968;SDS011;8085;53.472;9.794;2023-02-11T13:48:44;13.40;;;3.50;;
15968;SDS011;8085;53.472;9.794;2023-02-11T13:51:16;10.70;;;3.50;;
15968;SDS011;8085;53.472;9.794;2023-02-11T13:53:57;13.77;;;3.77;;
15968;SDS011;8085;53.472;9.794;2023-02-11T13:56:27;12.13;;;3.67;;
15968;SDS011;8085;53.472;9.794;2023-02-11T13:58:55;14.23;;;3.80;;
15968;SDS011;8085;53.472;9.794;2023-02-11T14:01:37;16.27;;;4.30;;
15968;SDS011;8085;53.472;9.794;2023-02-11T14:04:19;10.53;;;4.17;;
15968;SDS011;8085;53.472;9.794;2023-02-11T14:07:20;13.10;;;4.30;;
15968;SDS011;8085;53.472;9.794;2023-02-11T14:13:17;13.40;;;4.43;;
15968;SDS011;8085;53.472;9.794;2023-02-11T14:15:48;16.83;;;4.90;;
15968;SDS011;8085;53.472;9.794;2023-02-11T14:21:36;19.03;;;5.17;;
15968;SDS011;8085;53.472;9.794;2023-02-11T14:27:12;15.97;;;5.97;;
15968;SDS011;8085;53.472;9.794;2023-02-11T14:29:48;20.13;;;5.13;;
15968;SDS011;8085;53.472;9.794;2023-02-11T14:32:32;21.47;;;5.50;;
15968;SDS011;8085;53.472;9.794;2023-02-11T14:35:08;18.40;;;5.30;;
15968;SDS011;8085;53.472;9.794;2023-02-11T14:37:44;20.97;;;5.73;;
15968;SDS011;8085;53.472;9.794;2023-02-11T14:40:20;24.13;;;5.20;;
15968;SDS011;8085;53.472;9.794;2023-02-11T14:42:52;21.37;;;5.07;;
15968;SDS011;8085;53.472;9.794;2023-02-11T14:45:22;17.67;;;5.50;;
15968;SDS011;8085;53.472;9.794;2023-02-11T14:47:52;17.27;;;5.73;;
15968;SDS011;8085;53.472;9.794;2023-02-11T14:50:26;18.23;;;4.63;;
15968;SDS011;8085;53.472;9.794;2023-02-11T14:52:59;16.07;;;4.87;;
15968;SDS011;8085;53.472;9.794;2023-02-11T14:55:29;26.50;;;5.57;;
15968;SDS011;8085;53.472;9.794;2023-02-11T14:58:11;18.60;;;4.73;;
15968;SDS011;8085;53.472;9.794;2023-02-11T15:00:46;20.10;;;5.33;;
15968;SDS011;8085;53.472;9.794;2023-02-11T15:03:28;20.83;;;4.80;;
15968;SDS011;8085;53.472;9.794;2023-02-11T15:05:57;26.10;;;5.43;;
15968;SDS011;8085;53.472;9.794;2023-02-11T15:08:28;21.77;;;5.60;;
15968;SDS011;8085;53.472;9.794;2023-02-11T15:10:56;27.97;;;5.83;;
15968;SDS011;8085;53.472;9.794;2023-02-11T15:13:25;26.63;;;6.07;;
15968;SDS011;8085;53.472;9.794;2023-02-11T15:15:59;26.37;;;5.70;;
15968;SDS011;8085;53.472;9.794;2023-02-11T15:18:32;22.90;;;5.20;;
15968;SDS011;8085;53.472;9.794;2023-02-11T15:21:02;29.43;;;6.03;;
15968;SDS011;8085;53.472;9.794;2023-02-11T15:23:31;21.67;;;4.87;;
15968;SDS011;8085;53.472;9.794;2023-02-11T15:25:58;27.50;;;6.03;;
15968;SDS011;8085;53.472;9.794;2023-02-11T15:28:29;23.70;;;5.10;;
15968;SDS011;8085;53.472;9.794;2023-02-11T15:30:58;19.70;;;4.63;;
15968;SDS011;8085;53.472;9.794;2023-02-11T15:33:26;23.73;;;5.07;;